Bei Facebook empfehlenBei Twitter postenGoogle plusPinterest

Das Wetter im Erzgebirge am 10.11.2016

Wetter und Klima am 10.11.2016 Holzhau im Erzgebirge (630m ü.NN)
Letzte gemessene Temperatur und Uhrzeit der Messung23:45:00 Uhr-0.80 °C
Temperatur (Maximum / Höchstwert) und Uhrzeit der Messung10:30:00 Uhr1.60 °C
Temperatur (Minimum / Tiefstwert) und Uhrzeit der Messung07:45:00-1.60 °C
Errechneter Absolutwert der Temperaturschwankungen zwischen Tmin und Tmax des Tages3.20 K
Errechnete Tagesmitteltemperatur-0.66250 °C
Gesamt - Niederschlag des Tages (in flüssiger Form)1.03 Liter / m²
Luftdruck (Maximum / Höchstwert) und Zeitpunkt der Messung23:30:00 Uhr1004.90 hPa
Luftdruck (Minimum / Tiefstwert) und Zeitpunkt der Messung06:30:00 Uhr998.00 hPa
Errechneter Absolutwert der Luftdruckschwankungen des Tages6.90 hPa
Höchste gemessene Windgeschwindigkeit und Uhrzeit der Messung23:45:00 Uhr0.00 km/h
Errechnete Windhäufigkeit in Relation zu den Messwerten des Tages0.00000 %
Niedrigste Windkühle (Windchill) und Zeitpunkt der Messung07:45:00 Uhr-1.60 °C
Taupunkt (Maximum / Höchstwert) und Uhrzeit der Messung10:15:00 Uhr0.60 °C
Taupunkt (Minimum / Tiefstwert) und Uhrzeit der Messung01:00:00-3.00 °C
Anzahl der automatisch eingelesenen Messwerte 96

Detaillierte Wetter- und Klima- Messwerte für den 10.11.2016 in Holzhau im Erzgebirge (630m ü.NN)
ZeitTemperaturLuftdruckRel. LuftfeuchteWindWindrichtungWindchillTaupunktNiederschlag l/m²
23:45:00-0.80 °C1004.70 hPa95.00 %-1.60 °C1.03
23:30:00-0.80 °C1004.90 hPa95.00 %-1.60 °C1.03
23:15:00-0.80 °C1004.80 hPa95.00 %-1.60 °C1.03
23:00:00-0.90 °C1004.90 hPa95.00 %-1.70 °C1.03
22:45:00-0.90 °C1004.70 hPa95.00 %-1.70 °C1.03
22:30:00-1.00 °C1004.60 hPa95.00 %-1.80 °C1.03
22:15:00-1.00 °C1004.60 hPa95.00 %-1.80 °C1.03
22:00:00-1.00 °C1004.80 hPa95.00 %-1.80 °C1.03
21:45:00-1.00 °C1004.80 hPa95.00 %-1.80 °C1.03
21:30:00-1.10 °C1004.90 hPa95.00 %-1.90 °C1.03
21:15:00-1.10 °C1004.90 hPa95.00 %-1.90 °C1.03
21:00:00-1.10 °C1004.90 hPa95.00 %-1.90 °C1.03
20:45:00-1.10 °C1004.90 hPa95.00 %-1.90 °C1.03
20:30:00-1.10 °C1004.80 hPa95.00 %-1.90 °C1.03
20:15:00-1.10 °C1004.90 hPa95.00 %-1.90 °C1.03
20:00:00-1.10 °C1004.60 hPa95.00 %-1.90 °C1.03
19:45:00-1.10 °C1004.40 hPa95.00 %-1.90 °C1.03
19:30:00-1.10 °C1004.40 hPa95.00 %-1.90 °C1.03
19:15:00-1.10 °C1004.30 hPa95.00 %-1.90 °C1.03
19:00:00-1.10 °C1004.20 hPa95.00 %-1.90 °C1.03
18:45:00-1.10 °C1004.20 hPa95.00 %-1.90 °C1.03
18:30:00-1.10 °C1004.00 hPa95.00 %-1.90 °C1.03
18:15:00-1.10 °C1003.70 hPa95.00 %-1.90 °C1.03
18:00:00-1.10 °C1003.90 hPa94.00 %-2.00 °C1.03
17:45:00-1.10 °C1003.70 hPa94.00 %-2.00 °C1.03
17:30:00-1.10 °C1003.70 hPa94.00 %-2.00 °C1.03
17:15:00-1.00 °C1003.50 hPa94.00 %-1.90 °C1.03
17:00:00-0.90 °C1003.50 hPa94.00 %-1.80 °C1.03
16:45:00-0.90 °C1003.40 hPa93.00 %-2.00 °C1.03
16:30:00-0.80 °C1003.20 hPa93.00 %-1.90 °C1.03
16:15:00-0.80 °C1003.10 hPa93.00 %-1.90 °C1.03
16:00:00-0.70 °C1002.70 hPa93.00 %-1.80 °C1.03
15:45:00-0.70 °C1002.60 hPa93.00 %-1.80 °C1.03
15:30:00-0.70 °C1002.40 hPa93.00 %-1.80 °C1.03
15:15:00-0.70 °C1002.30 hPa93.00 %-1.80 °C1.03
15:00:00-0.60 °C1002.00 hPa92.00 %-1.90 °C1.03
14:45:00-0.40 °C1001.80 hPa92.00 %-1.70 °C1.03
14:30:00-0.20 °C1001.70 hPa92.00 %-1.50 °C1.03
14:15:00-0.10 °C1001.40 hPa92.00 %-1.40 °C1.03
14:00:00-0.10 °C1001.00 hPa92.00 %-1.40 °C1.03
13:45:000.00 °C1001.00 hPa92.00 %-1.30 °C1.03
13:30:000.20 °C1000.90 hPa91.00 %-1.10 °C1.03
13:15:000.40 °C1001.00 hPa91.00 %-0.90 °C1.03
13:00:000.60 °C1000.70 hPa91.00 %-0.70 °C1.03
12:45:000.80 °C1000.50 hPa91.00 %-0.50 °C0.52
12:30:000.90 °C1000.30 hPa91.00 %-0.40 °C0.52
12:15:001.40 °C1000.10 hPa91.00 %0.10 °C0.52
12:00:001.50 °C1000.00 hPa91.00 %0.20 °C0.52
11:45:001.50 °C1000.00 hPa91.00 %0.20 °C0.52
11:30:001.30 °C999.90 hPa91.00 %0.00 °C 
11:15:001.30 °C999.90 hPa91.00 %0.00 °C 
11:00:001.30 °C1000.00 hPa91.00 %0.00 °C 
10:45:001.50 °C999.70 hPa92.00 %0.30 °C 
10:30:001.60 °C999.70 hPa92.00 %0.40 °C 
10:15:001.60 °C999.40 hPa93.00 %0.60 °C 
10:00:001.30 °C999.20 hPa93.00 %0.30 °C 
09:45:000.70 °C999.30 hPa93.00 %-0.30 °C 
09:30:000.50 °C999.20 hPa94.00 %-0.40 °C 
09:15:00-0.10 °C998.90 hPa94.00 %-1.00 °C 
09:00:00-0.50 °C999.00 hPa94.00 %-1.40 °C 
08:45:00-0.70 °C998.60 hPa93.00 %-1.80 °C 
08:30:00-1.00 °C998.40 hPa93.00 %-2.10 °C 
08:15:00-1.20 °C998.40 hPa93.00 %-2.30 °C 
08:00:00-1.40 °C998.30 hPa93.00 %-2.50 °C 
07:45:00-1.60 °C998.20 hPa93.00 %-2.70 °C 
07:30:00-1.60 °C998.30 hPa93.00 %-2.70 °C 
07:15:00-1.50 °C998.40 hPa93.00 %-2.60 °C 
07:00:00-1.40 °C998.20 hPa93.00 %-2.50 °C 
06:45:00-1.30 °C998.10 hPa93.00 %-2.40 °C 
06:30:00-1.30 °C998.00 hPa92.00 %-2.60 °C 
06:15:00-1.20 °C998.00 hPa92.00 %-2.50 °C 
06:00:00-1.10 °C998.00 hPa92.00 %-2.40 °C 
05:45:00-1.10 °C998.00 hPa92.00 %-2.40 °C 
05:30:00-1.00 °C998.10 hPa92.00 %-2.30 °C 
05:15:00-1.00 °C998.30 hPa92.00 %-2.30 °C 
05:00:00-1.10 °C998.40 hPa92.00 %-2.40 °C 
04:45:00-1.10 °C998.60 hPa92.00 %-2.40 °C 
04:30:00-1.20 °C998.50 hPa92.00 %-2.50 °C 
04:15:00-1.20 °C998.60 hPa92.00 %-2.50 °C 
04:00:00-1.20 °C998.90 hPa92.00 %-2.50 °C 
03:45:00-1.20 °C999.10 hPa92.00 %-2.50 °C 
03:30:00-1.20 °C999.10 hPa91.00 %-2.60 °C 
03:15:00-1.20 °C999.20 hPa91.00 %-2.60 °C 
03:00:00-1.10 °C999.30 hPa91.00 %-2.50 °C 
02:45:00-1.10 °C999.60 hPa91.00 %-2.50 °C 
02:30:00-1.20 °C999.70 hPa91.00 %-2.60 °C 
02:15:00-1.30 °C999.80 hPa91.00 %-2.70 °C 
02:00:00-1.30 °C999.80 hPa91.00 %-2.70 °C 
01:45:00-1.20 °C1000.00 hPa91.00 %-2.60 °C 
01:30:00-1.40 °C1000.10 hPa91.00 %-2.80 °C 
01:15:00-1.50 °C1000.40 hPa91.00 %-2.90 °C 
01:00:00-1.60 °C1000.40 hPa91.00 %-3.00 °C 
00:45:00-1.60 °C1000.50 hPa91.00 %-3.00 °C 
00:30:00-1.60 °C1000.60 hPa91.00 %-3.00 °C 
00:15:00-1.60 °C1000.70 hPa91.00 %-3.00 °C 
00:00:00-1.60 °C1000.90 hPa91.00 %-3.00 °C 

Permanenter Link zu dieser Seite: Wetter im Erzgebirge am 10.11.2016
Performance-Info: Die Erstellung der Seite / Statistik(en) / Tabelle(n) erforderte 5 Datenbankserver-Abfrage(n) und dauerte 101 Millisekunden. (Dieser Messwert ist von der Gesamt-Auslastung des Servers abhängig.)
Erzgebirge - Wetter | Erzgebirge - Wetter (Mobilgeräte) | Komplette Klimadatenbank